Huvudsida
METAR-TAF:

METAR-TAF

Flygplatser :

Kuusamo flygplats

Kuusamo, Finland

latitud: 65-58N, longitud: 029-11E, höjd: 262 m

Aktuellt väderrapport

Denna rapport gjordes för 12 minuter sedan, klockan 18:50 UTC
Vind 6 kt från väst/nordväst
Temperatur 2°C
Fuktighet 80%
Tryck 1007 hPa
Sikt 10 km eller mer
Inga moln under 1 500 m eller inga cumulonimbus

METAR: EFKS 201850Z 29006KT CAVOK 02/M01 Q1007

Tid: 22:02 (19:02 UTC)

Väderprognos

Denna rapport gjordes för 1 timme och 30 minuter sedan, klockan 17:32 UTC
Prognos gäller från 20 kl. 18 UTC till 20 kl. 20 UTC
Vind 6 kt från väst/nordväst
Sikt 10 km eller mer
Få moln på en höjd av 3500 ft

TAF: EFKS 201732Z 2018/2020 30006KT 9999 FEW035

Aktuella väderrapporter och prognoser från 4000 flygplatser (METAR- och TAF-rapporter).

De tillgängliga stationerna syns som gula och röda prickar på kartan.

För musen över prickarna för att se namnen på stationerna.

Klicka sedan för att få väderrapporter och prognoser.

För att ändra kartan: Klicka på de gröna knapparna med ett svart kors på för att zooma in; den gröna knappen med ett streck på för att zooma ut; eller på de gröna pilarna för angränsande kartor.


METAR-TAF: